sensor_id;sensor_type;location;lat;lon;timestamp;pressure;altitude;pressure_sealevel;temperature;humidity
27425;BME280;15244;49.088;11.886;2023-04-19T00:02:27;96334.06;;;12.67;50.93
27425;BME280;15244;49.088;11.886;2023-04-19T00:07:56;96323.47;;;12.66;50.68
27425;BME280;15244;49.088;11.886;2023-04-19T00:13:11;96315.28;;;12.66;50.75
27425;BME280;15244;49.088;11.886;2023-04-19T00:18:40;96315.25;;;12.62;50.99
27425;BME280;15244;49.088;11.886;2023-04-19T00:23:55;96309.78;;;12.58;50.81
27425;BME280;15244;49.088;11.886;2023-04-19T00:29:24;96308.19;;;12.57;50.78
27425;BME280;15244;49.088;11.886;2023-04-19T00:34:39;96302.31;;;12.55;50.99
27425;BME280;15244;49.088;11.886;2023-04-19T00:40:08;96297.25;;;12.57;50.73
27425;BME280;15244;49.088;11.886;2023-04-19T00:45:24;96291.78;;;12.57;51.08
27425;BME280;15244;49.088;11.886;2023-04-19T00:50:52;96288.28;;;12.57;50.55
27425;BME280;15244;49.088;11.886;2023-04-19T00:56:08;96286.72;;;12.56;51.04
27425;BME280;15244;49.088;11.886;2023-04-19T01:01:38;96282.41;;;12.55;50.78
27425;BME280;15244;49.088;11.886;2023-04-19T01:06:54;96282.78;;;12.53;51.09
27425;BME280;15244;49.088;11.886;2023-04-19T01:12:23;96277.31;;;12.53;50.86
27425;BME280;15244;49.088;11.886;2023-04-19T01:17:38;96265.53;;;12.42;50.75
27425;BME280;15244;49.088;11.886;2023-04-19T01:23:07;96257.28;;;12.31;50.96
27425;BME280;15244;49.088;11.886;2023-04-19T01:28:25;96252.94;;;12.23;51.16
27425;BME280;15244;49.088;11.886;2023-04-19T01:33:54;96241.16;;;12.16;51.18
27425;BME280;15244;49.088;11.886;2023-04-19T01:39:12;96239.59;;;12.14;51.48
27425;BME280;15244;49.088;11.886;2023-04-19T01:44:40;96240.00;;;12.17;51.22
27425;BME280;15244;49.088;11.886;2023-04-19T01:49:55;96239.97;;;12.13;51.25
27425;BME280;15244;49.088;11.886;2023-04-19T01:55:17;96234.09;;;12.11;51.21
27425;BME280;15244;49.088;11.886;2023-04-19T02:00:39;96242.25;;;12.04;51.66
27425;BME280;15244;49.088;11.886;2023-04-19T02:05:54;96243.78;;;11.98;51.72
27425;BME280;15244;49.088;11.886;2023-04-19T02:11:23;96232.84;;;11.98;51.50
27425;BME280;15244;49.088;11.886;2023-04-19T02:16:38;96221.13;;;11.97;51.99
27425;BME280;15244;49.088;11.886;2023-04-19T02:22:07;96213.69;;;11.94;51.92
27425;BME280;15244;49.088;11.886;2023-04-19T02:27:22;96210.53;;;11.92;51.41
27425;BME280;15244;49.088;11.886;2023-04-19T02:32:51;96207.72;;;11.81;51.96
27425;BME280;15244;49.088;11.886;2023-04-19T02:38:08;96200.56;;;11.62;52.02
27425;BME280;15244;49.088;11.886;2023-04-19T02:43:37;96195.38;;;11.50;52.57
27425;BME280;15244;49.088;11.886;2023-04-19T02:48:52;96193.69;;;11.35;52.79
27425;BME280;15244;49.088;11.886;2023-04-19T02:54:07;96193.13;;;11.15;53.31
27425;BME280;15244;49.088;11.886;2023-04-19T02:59:36;96187.94;;;11.02;53.75
27425;BME280;15244;49.088;11.886;2023-04-19T03:04:51;96178.94;;;10.98;53.95
27425;BME280;15244;49.088;11.886;2023-04-19T03:10:20;96168.00;;;10.95;53.65
27425;BME280;15244;49.088;11.886;2023-04-19T03:15:35;96162.03;;;10.85;54.24
27425;BME280;15244;49.088;11.886;2023-04-19T03:21:04;96158.88;;;10.80;54.19
27425;BME280;15244;49.088;11.886;2023-04-19T03:26:26;96158.44;;;10.74;54.35
27425;BME280;15244;49.088;11.886;2023-04-19T03:32:00;96145.91;;;10.70;54.59
27425;BME280;15244;49.088;11.886;2023-04-19T03:37:16;96140.88;;;10.72;54.28
27425;BME280;15244;49.088;11.886;2023-04-19T03:42:45;96135.41;;;10.72;54.41
27425;BME280;15244;49.088;11.886;2023-04-19T03:48:15;96136.09;;;10.61;54.72
27425;BME280;15244;49.088;11.886;2023-04-19T03:53:30;96129.38;;;10.55;54.77
27425;BME280;15244;49.088;11.886;2023-04-19T03:58:59;96127.06;;;10.54;54.91
27425;BME280;15244;49.088;11.886;2023-04-19T04:04:16;96126.91;;;10.43;55.12
27425;BME280;15244;49.088;11.886;2023-04-19T04:09:44;96123.75;;;10.37;55.09
27425;BME280;15244;49.088;11.886;2023-04-19T04:15:03;96127.66;;;10.40;55.11
27425;BME280;15244;49.088;11.886;2023-04-19T04:20:34;96130.84;;;10.46;55.07
27425;BME280;15244;49.088;11.886;2023-04-19T04:25:58;96129.72;;;10.50;54.91
27425;BME280;15244;49.088;11.886;2023-04-19T04:31:40;96128.94;;;10.50;55.07
27425;BME280;15244;49.088;11.886;2023-04-19T04:37:00;96132.44;;;10.50;55.23
27425;BME280;15244;49.088;11.886;2023-04-19T04:42:29;96130.47;;;10.47;54.99
27425;BME280;15244;49.088;11.886;2023-04-19T04:48:00;96134.78;;;10.48;55.05
27425;BME280;15244;49.088;11.886;2023-04-19T04:53:29;96128.88;;;10.43;55.25
27425;BME280;15244;49.088;11.886;2023-04-19T04:58:44;96119.91;;;10.42;55.43
27425;BME280;15244;49.088;11.886;2023-04-19T05:04:18;96128.88;;;10.43;55.23
27425;BME280;15244;49.088;11.886;2023-04-19T05:09:33;96120.69;;;10.43;55.51
27425;BME280;15244;49.088;11.886;2023-04-19T05:15:08;96119.47;;;10.36;55.53
27425;BME280;15244;49.088;11.886;2023-04-19T05:20:28;96129.63;;;10.43;55.65
27425;BME280;15244;49.088;11.886;2023-04-19T05:26:04;96128.88;;;10.43;55.81
27425;BME280;15244;49.088;11.886;2023-04-19T05:31:21;96119.53;;;10.44;55.62
27425;BME280;15244;49.088;11.886;2023-04-19T05:37:02;96118.03;;;10.46;55.83
27425;BME280;15244;49.088;11.886;2023-04-19T05:42:23;96106.00;;;10.51;56.31
27425;BME280;15244;49.088;11.886;2023-04-19T05:47:52;96107.47;;;10.45;56.60
27425;BME280;15244;49.088;11.886;2023-04-19T05:53:32;96100.53;;;10.51;56.47
27425;BME280;15244;49.088;11.886;2023-04-19T05:59:01;96090.88;;;10.60;56.18
27425;BME280;15244;49.088;11.886;2023-04-19T06:04:17;96090.09;;;10.56;56.73
27425;BME280;15244;49.088;11.886;2023-04-19T06:09:45;96091.31;;;10.62;56.56
27425;BME280;15244;49.088;11.886;2023-04-19T06:15:00;96097.16;;;10.65;56.52
27425;BME280;15244;49.088;11.886;2023-04-19T06:20:29;96096.81;;;10.70;56.75
27425;BME280;15244;49.088;11.886;2023-04-19T06:25:44;96090.66;;;10.76;56.49
27425;BME280;15244;49.088;11.886;2023-04-19T06:31:13;96091.44;;;10.77;56.68
27425;BME280;15244;49.088;11.886;2023-04-19T06:36:28;96093.06;;;10.81;56.23
27425;BME280;15244;49.088;11.886;2023-04-19T06:41:57;96089.56;;;10.84;56.72
27425;BME280;15244;49.088;11.886;2023-04-19T06:47:12;96086.84;;;10.88;56.70
27425;BME280;15244;49.088;11.886;2023-04-19T06:52:41;96090.75;;;10.87;56.40
27425;BME280;15244;49.088;11.886;2023-04-19T06:57:56;96080.66;;;10.91;56.75
27425;BME280;15244;49.088;11.886;2023-04-19T07:03:25;96076.38;;;10.94;56.66
27425;BME280;15244;49.088;11.886;2023-04-19T07:08:40;96074.06;;;10.96;57.11
27425;BME280;15244;49.088;11.886;2023-04-19T07:14:09;96070.97;;;11.01;56.60
27425;BME280;15244;49.088;11.886;2023-04-19T07:19:24;96070.25;;;11.04;57.01
27425;BME280;15244;49.088;11.886;2023-04-19T07:24:53;96069.78;;;10.98;57.21
27425;BME280;15244;49.088;11.886;2023-04-19T07:30:08;96067.88;;;11.02;56.92
27425;BME280;15244;49.088;11.886;2023-04-19T07:35:40;96062.00;;;10.97;57.50
27425;BME280;15244;49.088;11.886;2023-04-19T07:40:55;96060.81;;;10.94;57.31
27425;BME280;15244;49.088;11.886;2023-04-19T07:46:24;96062.72;;;10.90;57.42
27425;BME280;15244;49.088;11.886;2023-04-19T07:51:39;96061.53;;;10.88;57.43
27425;BME280;15244;49.088;11.886;2023-04-19T07:57:08;96061.13;;;10.85;57.72
27425;BME280;15244;49.088;11.886;2023-04-19T08:02:26;96052.97;;;10.89;57.64
27425;BME280;15244;49.088;11.886;2023-04-19T08:07:55;96048.25;;;10.86;58.06
27425;BME280;15244;49.088;11.886;2023-04-19T08:13:10;96052.56;;;10.87;58.29
27425;BME280;15244;49.088;11.886;2023-04-19T08:18:39;96043.28;;;10.95;57.89
27425;BME280;15244;49.088;11.886;2023-04-19T08:23:54;96045.63;;;10.97;58.05
27425;BME280;15244;49.088;11.886;2023-04-19T08:29:23;96042.56;;;11.05;58.23
27425;BME280;15244;49.088;11.886;2023-04-19T08:34:39;96038.34;;;11.12;58.16
27425;BME280;15244;49.088;11.886;2023-04-19T08:40:08;96044.59;;;11.12;58.07
27425;BME280;15244;49.088;11.886;2023-04-19T08:45:28;96035.63;;;11.15;58.46
27425;BME280;15244;49.088;11.886;2023-04-19T08:50:58;96036.41;;;11.16;58.12
27425;BME280;15244;49.088;11.886;2023-04-19T08:56:13;96035.25;;;11.17;58.40
27425;BME280;15244;49.088;11.886;2023-04-19T09:01:49;96024.38;;;11.24;58.46
27425;BME280;15244;49.088;11.886;2023-04-19T09:07:04;96017.38;;;11.26;58.56
27425;BME280;15244;49.088;11.886;2023-04-19T09:12:34;96020.91;;;11.31;58.24
27425;BME280;15244;49.088;11.886;2023-04-19T09:18:03;96017.72;;;11.21;58.74
27425;BME280;15244;49.088;11.886;2023-04-19T09:23:45;96017.72;;;11.21;58.86
27425;BME280;15244;49.088;11.886;2023-04-19T09:29:02;96007.16;;;11.16;58.85
27425;BME280;15244;49.088;11.886;2023-04-19T09:34:32;96012.66;;;11.20;58.58
27425;BME280;15244;49.088;11.886;2023-04-19T09:39:47;96000.16;;;11.12;59.18
27425;BME280;15244;49.088;11.886;2023-04-19T09:45:16;96013.38;;;11.13;59.03
27425;BME280;15244;49.088;11.886;2023-04-19T09:50:35;96012.56;;;11.05;58.95
27425;BME280;15244;49.088;11.886;2023-04-19T09:56:04;96013.53;;;10.79;58.61
27425;BME280;15244;49.088;11.886;2023-04-19T10:01:20;96011.03;;;10.60;58.81
27425;BME280;15244;49.088;11.886;2023-04-19T10:06:51;96012.91;;;10.49;58.62
27425;BME280;15244;49.088;11.886;2023-04-19T10:12:26;96004.16;;;10.29;58.77
27425;BME280;15244;49.088;11.886;2023-04-19T10:17:44;96009.41;;;10.14;59.08
27425;BME280;15244;49.088;11.886;2023-04-19T10:23:13;96009.31;;;10.07;58.93
27425;BME280;15244;49.088;11.886;2023-04-19T10:28:28;95996.88;;;10.06;58.92
27425;BME280;15244;49.088;11.886;2023-04-19T10:33:57;95995.25;;;10.02;58.81
27425;BME280;15244;49.088;11.886;2023-04-19T10:39:38;95991.06;;;10.08;58.77
27425;BME280;15244;49.088;11.886;2023-04-19T10:45:32;95989.16;;;10.12;58.84
27425;BME280;15244;49.088;11.886;2023-04-19T10:57:03;95973.19;;;10.10;58.50
27425;BME280;15244;49.088;11.886;2023-04-19T11:07:53;95956.53;;;10.19;58.72
27425;BME280;15244;49.088;11.886;2023-04-19T11:13:08;95959.31;;;10.26;58.93
27425;BME280;15244;49.088;11.886;2023-04-19T11:18:37;95953.16;;;10.33;58.72
27425;BME280;15244;49.088;11.886;2023-04-19T11:24:05;95944.63;;;10.38;58.54
27425;BME280;15244;49.088;11.886;2023-04-19T11:29:34;95938.13;;;10.50;58.33
27425;BME280;15244;49.088;11.886;2023-04-19T11:34:49;95936.22;;;10.54;58.31
27425;BME280;15244;49.088;11.886;2023-04-19T11:40:20;95927.28;;;10.57;58.19
27425;BME280;15244;49.088;11.886;2023-04-19T11:45:36;95917.91;;;10.51;57.98
27425;BME280;15244;49.088;11.886;2023-04-19T11:51:05;95906.72;;;10.67;57.68
27425;BME280;15244;49.088;11.886;2023-04-19T11:56:20;95911.81;;;10.75;57.31
27425;BME280;15244;49.088;11.886;2023-04-19T12:01:49;95914.19;;;10.80;57.38
27425;BME280;15244;49.088;11.886;2023-04-19T12:07:05;95914.66;;;10.90;57.31
27425;BME280;15244;49.088;11.886;2023-04-19T12:12:36;95910.38;;;10.96;56.90
27425;BME280;15244;49.088;11.886;2023-04-19T12:18:00;95896.06;;;11.13;56.74
27425;BME280;15244;49.088;11.886;2023-04-19T12:23:29;95896.13;;;11.31;56.58
27425;BME280;15244;49.088;11.886;2023-04-19T12:28:44;95889.19;;;11.52;56.77
27425;BME280;15244;49.088;11.886;2023-04-19T12:34:13;95877.94;;;11.67;56.70
27425;BME280;15244;49.088;11.886;2023-04-19T12:39:28;95880.34;;;11.90;56.79
27425;BME280;15244;49.088;11.886;2023-04-19T12:44:57;95871.00;;;12.06;55.66
27425;BME280;15244;49.088;11.886;2023-04-19T12:50:13;95871.00;;;12.06;54.70
27425;BME280;15244;49.088;11.886;2023-04-19T12:55:42;95855.38;;;11.99;53.25
27425;BME280;15244;49.088;11.886;2023-04-19T13:01:01;95865.53;;;12.06;53.05
27425;BME280;15244;49.088;11.886;2023-04-19T13:06:30;95860.06;;;12.13;52.14
27425;BME280;15244;49.088;11.886;2023-04-19T13:11:45;95862.00;;;12.20;50.81
27425;BME280;15244;49.088;11.886;2023-04-19T13:17:14;95856.16;;;12.28;50.48
27425;BME280;15244;49.088;11.886;2023-04-19T13:22:29;95856.16;;;12.32;49.20
27425;BME280;15244;49.088;11.886;2023-04-19T13:27:58;95844.84;;;12.26;48.30
27425;BME280;15244;49.088;11.886;2023-04-19T13:33:13;95830.38;;;12.36;47.57
27425;BME280;15244;49.088;11.886;2023-04-19T13:38:42;95827.22;;;12.60;48.33
27425;BME280;15244;49.088;11.886;2023-04-19T13:44:04;95834.19;;;12.82;47.79
27425;BME280;15244;49.088;11.886;2023-04-19T13:49:33;95824.75;;;13.01;46.95
27425;BME280;15244;49.088;11.886;2023-04-19T13:54:48;95801.97;;;13.26;47.13
27425;BME280;15244;49.088;11.886;2023-04-19T14:00:17;95801.94;;;13.40;46.29
27425;BME280;15244;49.088;11.886;2023-04-19T14:05:32;95804.63;;;13.47;45.60
27425;BME280;15244;49.088;11.886;2023-04-19T14:11:01;95787.50;;;13.32;42.39
27425;BME280;15244;49.088;11.886;2023-04-19T14:16:16;95796.47;;;13.40;43.00
27425;BME280;15244;49.088;11.886;2023-04-19T14:21:45;95785.47;;;13.43;41.46
27425;BME280;15244;49.088;11.886;2023-04-19T14:27:00;95782.19;;;13.70;41.86
27425;BME280;15244;49.088;11.886;2023-04-19T14:32:29;95772.53;;;14.00;41.68
27425;BME280;15244;49.088;11.886;2023-04-19T14:37:44;95774.78;;;14.16;40.66
27425;BME280;15244;49.088;11.886;2023-04-19T14:43:16;95775.56;;;14.13;38.84
27425;BME280;15244;49.088;11.886;2023-04-19T14:48:45;95773.13;;;14.22;39.47
27425;BME280;15244;49.088;11.886;2023-04-19T14:54:00;95778.78;;;14.45;40.71
27425;BME280;15244;49.088;11.886;2023-04-19T14:59:29;95776.81;;;14.87;43.33
27425;BME280;15244;49.088;11.886;2023-04-19T15:04:44;95773.66;;;15.20;44.42
27425;BME280;15244;49.088;11.886;2023-04-19T15:10:14;95771.00;;;15.43;44.77
27425;BME280;15244;49.088;11.886;2023-04-19T15:15:29;95769.53;;;15.62;44.68
27425;BME280;15244;49.088;11.886;2023-04-19T15:20:58;95774.75;;;15.84;45.09
27425;BME280;15244;49.088;11.886;2023-04-19T15:26:13;95772.06;;;15.49;37.57
27425;BME280;15244;49.088;11.886;2023-04-19T15:31:42;95780.53;;;15.62;40.47
27425;BME280;15244;49.088;11.886;2023-04-19T15:36:57;95774.34;;;15.85;41.09
27425;BME280;15244;49.088;11.886;2023-04-19T15:42:27;95775.41;;;16.15;41.41
27425;BME280;15244;49.088;11.886;2023-04-19T15:47:42;95772.72;;;16.35;40.45
27425;BME280;15244;49.088;11.886;2023-04-19T15:53:11;95778.63;;;16.57;40.00
27425;BME280;15244;49.088;11.886;2023-04-19T15:58:26;95777.88;;;16.76;39.21
27425;BME280;15244;49.088;11.886;2023-04-19T16:03:41;95782.34;;;16.90;38.34
27425;BME280;15244;49.088;11.886;2023-04-19T16:09:11;95789.97;;;17.02;37.83
27425;BME280;15244;49.088;11.886;2023-04-19T16:14:26;95788.50;;;16.98;36.86
27425;BME280;15244;49.088;11.886;2023-04-19T16:19:55;95793.91;;;17.01;37.05
27425;BME280;15244;49.088;11.886;2023-04-19T16:25:10;95794.59;;;16.89;35.93
27425;BME280;15244;49.088;11.886;2023-04-19T16:30:39;95798.31;;;16.79;35.79
27425;BME280;15244;49.088;11.886;2023-04-19T16:35:54;95799.84;;;16.80;36.00
27425;BME280;15244;49.088;11.886;2023-04-19T16:41:23;95806.06;;;16.60;35.20
27425;BME280;15244;49.088;11.886;2023-04-19T16:46:38;95808.28;;;16.69;35.41
27425;BME280;15244;49.088;11.886;2023-04-19T16:52:07;95813.03;;;16.68;35.20
27425;BME280;15244;49.088;11.886;2023-04-19T16:57:22;95804.34;;;16.70;34.43
27425;BME280;15244;49.088;11.886;2023-04-19T17:02:51;95804.53;;;16.59;33.82
27425;BME280;15244;49.088;11.886;2023-04-19T17:08:06;95801.06;;;16.55;33.92
27425;BME280;15244;49.088;11.886;2023-04-19T17:13:35;95795.50;;;16.59;34.11
27425;BME280;15244;49.088;11.886;2023-04-19T17:18:54;95806.91;;;16.57;33.39
27425;BME280;15244;49.088;11.886;2023-04-19T17:24:23;95820.81;;;16.27;33.01
27425;BME280;15244;49.088;11.886;2023-04-19T17:29:38;95817.31;;;15.72;33.13
27425;BME280;15244;49.088;11.886;2023-04-19T17:35:07;95825.34;;;15.28;32.76
27425;BME280;15244;49.088;11.886;2023-04-19T17:40:22;95826.41;;;15.04;33.44
27425;BME280;15244;49.088;11.886;2023-04-19T17:45:51;95829.91;;;14.70;33.53
27425;BME280;15244;49.088;11.886;2023-04-19T17:51:06;95827.00;;;14.43;33.86
27425;BME280;15244;49.088;11.886;2023-04-19T17:56:35;95833.84;;;14.20;34.25
27425;BME280;15244;49.088;11.886;2023-04-19T18:01:50;95834.03;;;13.99;34.09
27425;BME280;15244;49.088;11.886;2023-04-19T18:07:19;95834.97;;;13.78;34.57
27425;BME280;15244;49.088;11.886;2023-04-19T18:12:34;95849.63;;;13.50;34.71
27425;BME280;15244;49.088;11.886;2023-04-19T18:18:03;95843.47;;;13.28;35.20
27425;BME280;15244;49.088;11.886;2023-04-19T18:23:18;95847.41;;;13.05;35.30
27425;BME280;15244;49.088;11.886;2023-04-19T18:28:47;95848.25;;;12.88;35.63
27425;BME280;15244;49.088;11.886;2023-04-19T18:34:02;95854.16;;;12.72;35.78
27425;BME280;15244;49.088;11.886;2023-04-19T18:39:31;95863.16;;;12.54;36.39
27425;BME280;15244;49.088;11.886;2023-04-19T18:44:53;95858.09;;;12.28;36.51
27425;BME280;15244;49.088;11.886;2023-04-19T18:50:22;95867.09;;;12.10;36.73
27425;BME280;15244;49.088;11.886;2023-04-19T18:55:37;95871.78;;;12.06;36.95
27425;BME280;15244;49.088;11.886;2023-04-19T19:01:07;95863.97;;;11.98;36.90
27425;BME280;15244;49.088;11.886;2023-04-19T19:06:22;95869.75;;;11.82;37.34
27425;BME280;15244;49.088;11.886;2023-04-19T19:11:51;95867.81;;;11.75;37.59
27425;BME280;15244;49.088;11.886;2023-04-19T19:17:06;95875.56;;;11.55;37.92
27425;BME280;15244;49.088;11.886;2023-04-19T19:22:35;95878.53;;;11.21;38.06
27425;BME280;15244;49.088;11.886;2023-04-19T19:27:50;95884.66;;;10.90;38.73
27425;BME280;15244;49.088;11.886;2023-04-19T19:33:24;95891.53;;;10.73;38.62
27425;BME280;15244;49.088;11.886;2023-04-19T19:38:40;95884.84;;;10.56;39.40
27425;BME280;15244;49.088;11.886;2023-04-19T19:44:09;95883.16;;;10.40;39.51
27425;BME280;15244;49.088;11.886;2023-04-19T19:49:24;95891.25;;;10.30;39.96
27425;BME280;15244;49.088;11.886;2023-04-19T19:54:56;95886.84;;;10.18;40.26
27425;BME280;15244;49.088;11.886;2023-04-19T20:00:12;95885.28;;;10.17;40.47
27425;BME280;15244;49.088;11.886;2023-04-19T20:05:44;95886.06;;;10.17;40.41
27425;BME280;15244;49.088;11.886;2023-04-19T20:10:59;95892.41;;;10.29;40.66
27425;BME280;15244;49.088;11.886;2023-04-19T20:16:28;95892.09;;;10.37;40.73
27425;BME280;15244;49.088;11.886;2023-04-19T20:21:43;95896.03;;;10.44;40.97
27425;BME280;15244;49.088;11.886;2023-04-19T20:27:12;95900.38;;;10.52;40.84
27425;BME280;15244;49.088;11.886;2023-04-19T20:32:27;95901.56;;;10.58;40.93
27425;BME280;15244;49.088;11.886;2023-04-19T20:37:57;95901.19;;;10.56;40.85
27425;BME280;15244;49.088;11.886;2023-04-19T20:43:16;95900.31;;;10.41;40.78
27425;BME280;15244;49.088;11.886;2023-04-19T20:48:45;95897.09;;;10.28;40.97
27425;BME280;15244;49.088;11.886;2023-04-19T20:54:00;95892.69;;;10.20;40.98
27425;BME280;15244;49.088;11.886;2023-04-19T20:59:29;95887.50;;;10.04;41.06
27425;BME280;15244;49.088;11.886;2023-04-19T21:04:44;95885.06;;;9.92;41.31
27425;BME280;15244;49.088;11.886;2023-04-19T21:10:13;95879.50;;;9.81;41.60
27425;BME280;15244;49.088;11.886;2023-04-19T21:15:30;95872.78;;;9.68;42.02
27425;BME280;15244;49.088;11.886;2023-04-19T21:20:59;95867.25;;;9.61;42.03
27425;BME280;15244;49.088;11.886;2023-04-19T21:26:14;95854.66;;;9.45;42.12
27425;BME280;15244;49.088;11.886;2023-04-19T21:31:43;95854.53;;;9.35;42.45
27425;BME280;15244;49.088;11.886;2023-04-19T21:36:58;95857.63;;;9.33;42.65
27425;BME280;15244;49.088;11.886;2023-04-19T21:42:27;95868.53;;;9.37;43.06
27425;BME280;15244;49.088;11.886;2023-04-19T21:47:42;95856.88;;;9.36;42.98
27425;BME280;15244;49.088;11.886;2023-04-19T21:53:11;95854.06;;;9.29;43.20
27425;BME280;15244;49.088;11.886;2023-04-19T21:58:26;95847.75;;;9.18;43.41
27425;BME280;15244;49.088;11.886;2023-04-19T22:03:55;95839.91;;;9.13;43.64
27425;BME280;15244;49.088;11.886;2023-04-19T22:09:10;95838.69;;;9.06;43.72
27425;BME280;15244;49.088;11.886;2023-04-19T22:14:39;95837.06;;;9.02;43.72
27425;BME280;15244;49.088;11.886;2023-04-19T22:19:54;95833.50;;;8.98;44.11
27425;BME280;15244;49.088;11.886;2023-04-19T22:25:23;95827.75;;;9.03;44.16
27425;BME280;15244;49.088;11.886;2023-04-19T22:30:38;95827.06;;;9.09;44.06
27425;BME280;15244;49.088;11.886;2023-04-19T22:36:07;95811.16;;;9.11;44.66
27425;BME280;15244;49.088;11.886;2023-04-19T22:41:22;95804.47;;;9.05;44.39
27425;BME280;15244;49.088;11.886;2023-04-19T22:46:51;95794.66;;;8.97;44.38
27425;BME280;15244;49.088;11.886;2023-04-19T22:52:06;95799.72;;;8.99;44.57
27425;BME280;15244;49.088;11.886;2023-04-19T22:57:35;95797.41;;;9.01;44.53
27425;BME280;15244;49.088;11.886;2023-04-19T23:02:50;95791.22;;;9.04;44.36
27425;BME280;15244;49.088;11.886;2023-04-19T23:08:19;95789.31;;;9.04;44.59
27425;BME280;15244;49.088;11.886;2023-04-19T23:13:35;95790.44;;;9.03;44.26
27425;BME280;15244;49.088;11.886;2023-04-19T23:19:05;95773.72;;;9.01;44.49
27425;BME280;15244;49.088;11.886;2023-04-19T23:24:21;95773.69;;;8.98;44.34
27425;BME280;15244;49.088;11.886;2023-04-19T23:29:50;95759.25;;;8.94;44.29
27425;BME280;15244;49.088;11.886;2023-04-19T23:35:05;95762.31;;;8.88;44.49
27425;BME280;15244;49.088;11.886;2023-04-19T23:40:34;95758.41;;;8.86;44.54
27425;BME280;15244;49.088;11.886;2023-04-19T23:45:57;95755.66;;;8.82;44.54
27425;BME280;15244;49.088;11.886;2023-04-19T23:51:26;95756.41;;;8.79;44.61
27425;BME280;15244;49.088;11.886;2023-04-19T23:56:41;95737.72;;;8.74;44.76
